Terminal Aerodrome Forecast
Issued by NWS

Home | Current Version | Previous Version | Text Only | Print | Product List | Glossary On
Versions: 1 2 3 4 5 6 7 8 9 10 11 12 13 14 15 16 17 18 19 20 21 22 23 24
000
FTAK31 PAJN 211700
TAFAYA
TAF
PAYA 211730Z 2118/2218 09004KT P6SM VCSH FEW005 BKN040
     FM212100 07006KT 6SM -RA BR BKN025 OVC040
     FM220000 05008KT 4SM RA BR BKN015 OVC025
     FM220500 13010G20KT P6SM -SHRA BKN015 OVC040
     FM221200 12008KT P6SM -SHRA BKN025 OVC050
      AMD LTD TO CLD VIS AND WIND 2201/2210=

USA.gov is the U.S. government's official web portal to all federal, state and local government web resources and services.